createdAt,value
2019-04-20T00:02:22.056Z,12.20
2019-04-20T00:04:49.517Z,12.00
2019-04-20T00:07:25.707Z,11.90
2019-04-20T00:09:57.523Z,11.70
2019-04-20T00:12:29.832Z,11.60
2019-04-20T00:14:49.997Z,11.60
2019-04-20T00:17:19.967Z,11.50
2019-04-20T00:19:53.833Z,11.40
2019-04-20T00:22:24.603Z,11.40
2019-04-20T00:25:04.290Z,11.50
2019-04-20T00:27:49.984Z,11.40
2019-04-20T00:30:26.227Z,11.40
2019-04-20T00:32:47.839Z,11.30
2019-04-20T00:35:02.132Z,11.40
2019-04-20T00:37:31.865Z,11.40
2019-04-20T00:40:01.639Z,11.50
2019-04-20T00:42:39.091Z,11.60
2019-04-20T00:45:08.454Z,11.50
2019-04-20T00:47:42.988Z,11.60
2019-04-20T00:50:19.898Z,11.70
2019-04-20T00:52:47.065Z,11.60
2019-04-20T00:55:02.364Z,11.60
2019-04-20T00:57:41.889Z,11.50
2019-04-20T01:00:18.026Z,11.50
2019-04-20T01:02:45.432Z,11.50
2019-04-20T01:05:17.972Z,11.50
2019-04-20T01:07:58.111Z,11.50
2019-04-20T01:10:23.713Z,11.40
2019-04-20T01:13:01.380Z,11.40
2019-04-20T01:15:32.671Z,11.40
2019-04-20T01:17:53.141Z,11.40
2019-04-20T01:20:22.671Z,11.40
2019-04-20T01:23:00.080Z,11.40
2019-04-20T01:25:30.060Z,11.40
2019-04-20T01:28:07.732Z,11.40
2019-04-20T01:30:30.185Z,11.40
2019-04-20T01:33:11.342Z,11.20
2019-04-20T01:35:40.820Z,11.20
2019-04-20T01:38:12.453Z,11.10
2019-04-20T01:40:25.222Z,11.10
2019-04-20T01:42:55.350Z,10.90
2019-04-20T01:45:30.761Z,10.80
2019-04-20T01:47:57.666Z,10.60
2019-04-20T01:50:28.478Z,10.60
2019-04-20T01:53:08.988Z,10.50
2019-04-20T01:55:43.643Z,10.40
2019-04-20T01:58:17.583Z,10.30
2019-04-20T02:00:45.222Z,10.10
2019-04-20T02:03:34.188Z,9.90
2019-04-20T02:06:07.424Z,9.80
2019-04-20T02:08:32.739Z,9.80
2019-04-20T02:11:04.351Z,9.70
2019-04-20T02:13:36.130Z,9.60
2019-04-20T02:16:11.456Z,9.50
2019-04-20T02:18:44.170Z,9.40
2019-04-20T02:21:22.030Z,9.30
2019-04-20T02:23:43.330Z,9.30
2019-04-20T02:26:02.969Z,9.20
2019-04-20T02:28:56.925Z,9.20
2019-04-20T02:31:47.607Z,9.20
2019-04-20T02:34:07.006Z,9.20
2019-04-20T02:36:51.519Z,9.20
2019-04-20T02:41:51.086Z,9.40
2019-04-20T02:46:46.908Z,9.50
2019-04-20T02:51:47.035Z,9.70
2019-04-20T02:56:47.692Z,9.80
2019-04-20T02:59:47.249Z,9.90
2019-04-20T03:01:36.480Z,9.90
2019-04-20T03:03:52.566Z,9.80
2019-04-20T03:06:30.783Z,9.70
2019-04-20T03:09:09.046Z,9.60
2019-04-20T03:11:46.483Z,9.60
2019-04-20T03:14:09.248Z,9.50
2019-04-20T03:16:35.657Z,9.40
2019-04-20T03:19:03.103Z,9.50
2019-04-20T03:21:43.202Z,9.40
2019-04-20T03:24:23.812Z,9.40
2019-04-20T03:26:40.344Z,9.30
2019-04-20T03:29:37.077Z,9.30
2019-04-20T03:32:57.344Z,9.30
2019-04-20T03:37:28.087Z,9.30
2019-04-20T03:39:46.430Z,9.40
2019-04-20T03:42:00.462Z,9.50
2019-04-20T03:44:32.105Z,9.50
2019-04-20T03:47:03.445Z,9.50
2019-04-20T03:49:55.032Z,9.50
2019-04-20T03:52:27.825Z,9.60
2019-04-20T03:55:10.275Z,9.60
2019-04-20T03:57:52.937Z,9.60
2019-04-20T04:00:26.467Z,9.70
2019-04-20T04:03:12.668Z,9.70
2019-04-20T04:05:45.921Z,9.70
2019-04-20T04:08:05.147Z,9.70
2019-04-20T04:10:46.065Z,9.60
2019-04-20T04:13:16.798Z,9.70
2019-04-20T04:15:51.988Z,9.60
2019-04-20T04:18:25.996Z,9.50
2019-04-20T04:20:59.046Z,9.50
2019-04-20T04:23:36.697Z,9.50
2019-04-20T04:28:36.958Z,9.30
2019-04-20T04:31:12.024Z,9.30
2019-04-20T04:36:10.101Z,9.10
2019-04-20T04:38:57.103Z,9.10
2019-04-20T04:41:31.016Z,9.00
2019-04-20T04:43:58.870Z,9.00
2019-04-20T04:46:12.459Z,8.90
2019-04-20T04:48:45.695Z,8.90
2019-04-20T04:51:19.670Z,9.00
2019-04-20T04:53:50.769Z,9.10
2019-04-20T04:56:17.021Z,9.20
2019-04-20T04:58:42.602Z,9.30
2019-04-20T05:01:18.501Z,9.40
2019-04-20T05:04:02.888Z,9.40
2019-04-20T05:06:26.422Z,9.30
2019-04-20T05:08:49.869Z,9.30
2019-04-20T05:11:15.082Z,9.40
2019-04-20T05:13:50.612Z,9.50
2019-04-20T05:16:37.377Z,9.60
2019-04-20T05:19:09.381Z,9.80
2019-04-20T05:21:38.886Z,9.90
2019-04-20T05:24:07.559Z,9.90
2019-04-20T05:26:53.080Z,10.00
2019-04-20T05:29:06.685Z,10.20
2019-04-20T05:31:36.102Z,10.80
2019-04-20T05:34:20.589Z,11.60
2019-04-20T05:36:50.351Z,12.20
2019-04-20T05:41:50.393Z,13.80
2019-04-20T05:44:16.989Z,14.60
2019-04-20T05:46:56.217Z,15.10
2019-04-20T05:49:28.717Z,15.60
2019-04-20T05:51:54.709Z,16.10
2019-04-20T05:54:31.086Z,16.60
2019-04-20T05:56:52.496Z,17.20
2019-04-20T05:59:19.159Z,17.60
2019-04-20T06:01:59.197Z,17.70
2019-04-20T06:04:30.094Z,17.80
2019-04-20T06:06:54.876Z,17.40
2019-04-20T06:09:28.032Z,16.60
2019-04-20T06:12:07.771Z,15.60
2019-04-20T06:14:39.377Z,14.70
2019-04-20T06:17:15.963Z,14.10
2019-04-20T06:19:39.572Z,13.70
2019-04-20T06:22:28.459Z,13.40
2019-04-20T06:24:59.149Z,13.20
2019-04-20T06:27:23.942Z,13.10
2019-04-20T06:29:49.262Z,13.10
2019-04-20T06:32:30.211Z,13.00
2019-04-20T06:34:48.973Z,13.00
2019-04-20T06:37:16.320Z,13.10
2019-04-20T06:39:54.641Z,13.10
2019-04-20T06:42:18.123Z,13.10
2019-04-20T06:44:48.225Z,13.20
2019-04-20T06:47:44.158Z,13.10
2019-04-20T06:49:54.733Z,13.20
2019-04-20T06:55:28.896Z,13.40
2019-04-20T06:57:45.477Z,13.50
2019-04-20T07:00:15.695Z,13.70
2019-04-20T07:02:44.722Z,13.80
2019-04-20T07:05:22.323Z,14.00
2019-04-20T07:07:47.596Z,14.10
2019-04-20T07:10:19.372Z,14.20
2019-04-20T07:12:40.918Z,14.30
2019-04-20T07:15:14.937Z,14.40
2019-04-20T07:17:55.024Z,14.50
2019-04-20T07:20:18.473Z,14.70
2019-04-20T07:22:51.048Z,14.70
2019-04-20T07:25:26.214Z,14.90
2019-04-20T07:27:54.601Z,15.00
2019-04-20T07:30:21.484Z,15.10
2019-04-20T07:33:08.908Z,15.20
2019-04-20T07:35:25.108Z,15.40
2019-04-20T07:38:24.330Z,15.50
2019-04-20T07:40:25.771Z,15.50
2019-04-20T07:43:00.239Z,15.70
2019-04-20T07:45:33.245Z,15.80
2019-04-20T07:48:07.470Z,16.00
2019-04-20T07:50:26.541Z,16.10
2019-04-20T07:52:51.663Z,16.30
2019-04-20T07:55:40.513Z,16.40
2019-04-20T07:57:53.835Z,16.60
2019-04-20T08:00:44.174Z,16.60
2019-04-20T08:03:24.689Z,16.80
2019-04-20T08:05:45.697Z,16.90
2019-04-20T08:08:18.302Z,17.10
2019-04-20T08:10:51.637Z,17.20
2019-04-20T08:13:32.962Z,17.30
2019-04-20T08:16:01.578Z,17.40
2019-04-20T08:18:27.688Z,17.50
2019-04-20T08:20:52.392Z,17.60
2019-04-20T08:23:23.342Z,17.60
2019-04-20T08:25:48.740Z,17.70
2019-04-20T08:28:06.375Z,17.80
2019-04-20T08:30:53.784Z,18.00
2019-04-20T08:33:24.490Z,18.00
2019-04-20T08:36:04.725Z,18.30
2019-04-20T08:39:00.135Z,18.50
2019-04-20T08:40:57.443Z,18.50
2019-04-20T08:43:43.782Z,18.60
2019-04-20T08:45:58.761Z,18.70
2019-04-20T08:48:33.265Z,18.80
2019-04-20T08:50:57.808Z,19.00
2019-04-20T08:53:31.745Z,19.00
2019-04-20T08:55:54.013Z,19.10
2019-04-20T08:58:11.422Z,20.30
2019-04-20T09:00:48.583Z,22.40
2019-04-20T09:03:17.981Z,24.60
2019-04-20T09:05:51.974Z,26.30
2019-04-20T09:08:18.882Z,27.00
2019-04-20T09:11:03.884Z,28.20
2019-04-20T09:13:24.583Z,28.90
2019-04-20T09:15:42.626Z,29.00
2019-04-20T09:18:25.986Z,29.70
2019-04-20T09:20:55.861Z,30.10
2019-04-20T09:23:40.889Z,30.00
2019-04-20T09:26:15.048Z,30.40
2019-04-20T09:28:38.420Z,30.80
2019-04-20T09:31:18.196Z,31.30
2019-04-20T09:34:10.447Z,31.50
2019-04-20T09:36:44.566Z,31.40
2019-04-20T09:39:15.984Z,32.30
2019-04-20T09:41:58.885Z,32.90
2019-04-20T09:44:08.962Z,33.50
2019-04-20T09:46:44.188Z,33.90
2019-04-20T09:49:18.887Z,33.80
2019-04-20T09:51:55.300Z,33.70
2019-04-20T09:54:25.794Z,34.10
2019-04-20T09:56:59.238Z,34.60
2019-04-20T09:59:28.868Z,34.50
2019-04-20T10:01:44.590Z,34.60
2019-04-20T10:04:08.308Z,34.90
2019-04-20T10:06:37.708Z,35.50
2019-04-20T10:09:09.623Z,35.50
2019-04-20T10:11:41.672Z,35.40
2019-04-20T10:14:08.305Z,35.40
2019-04-20T10:16:37.908Z,35.30
2019-04-20T10:19:09.986Z,35.00
2019-04-20T10:21:38.213Z,35.10
2019-04-20T10:24:08.557Z,35.80
2019-04-20T10:26:37.056Z,35.80
2019-04-20T10:29:07.889Z,36.30
2019-04-20T10:31:42.654Z,36.70
2019-04-20T10:34:07.416Z,36.60
2019-04-20T10:36:38.050Z,36.20
2019-04-20T10:39:10.836Z,36.10
2019-04-20T10:41:48.306Z,35.50
2019-04-20T10:44:09.514Z,35.00
2019-04-20T10:46:38.860Z,34.40
2019-04-20T10:49:08.282Z,34.40
2019-04-20T10:51:37.803Z,34.80
2019-04-20T10:54:06.917Z,34.50
2019-04-20T10:56:35.317Z,34.00
2019-04-20T10:59:03.745Z,33.90
2019-04-20T11:01:32.129Z,33.60
2019-04-20T11:04:00.793Z,33.90
2019-04-20T11:06:29.281Z,34.30
2019-04-20T11:08:58.549Z,34.90
2019-04-20T11:11:30.037Z,35.40
2019-04-20T11:13:59.855Z,36.00
2019-04-20T11:16:28.524Z,36.60
2019-04-20T11:18:57.810Z,36.10
2019-04-20T11:21:28.147Z,35.50
2019-04-20T11:23:56.642Z,35.20
2019-04-20T11:26:26.371Z,35.00
2019-04-20T11:28:55.898Z,35.00
2019-04-20T11:31:26.817Z,35.40
2019-04-20T11:33:56.223Z,35.10
2019-04-20T11:36:25.309Z,35.40
2019-04-20T11:38:54.414Z,35.60
2019-04-20T11:41:28.665Z,35.80
2019-04-20T11:43:55.641Z,36.30
2019-04-20T11:46:24.962Z,37.10
2019-04-20T11:48:53.476Z,37.30
2019-04-20T11:51:23.269Z,37.00
2019-04-20T11:53:52.301Z,36.40
2019-04-20T11:56:28.050Z,36.30
2019-04-20T11:58:51.442Z,35.90
2019-04-20T12:01:29.015Z,36.30
2019-04-20T12:04:01.704Z,35.40
2019-04-20T12:06:25.230Z,35.00
2019-04-20T12:08:54.986Z,35.10
2019-04-20T12:11:33.927Z,35.30
2019-04-20T12:13:54.517Z,36.10
2019-04-20T12:16:23.646Z,36.10
2019-04-20T12:18:52.569Z,36.60
2019-04-20T12:21:21.130Z,36.90
2019-04-20T12:23:49.562Z,36.60
2019-04-20T12:26:18.637Z,36.50
2019-04-20T12:28:47.557Z,36.70
2019-04-20T12:31:21.985Z,37.60
2019-04-20T12:33:46.801Z,37.90
2019-04-20T12:36:16.366Z,38.20
2019-04-20T12:38:46.313Z,38.00
2019-04-20T12:41:16.135Z,37.60
2019-04-20T12:43:45.671Z,36.50
2019-04-20T12:46:17.872Z,35.60
2019-04-20T12:48:44.734Z,35.40
2019-04-20T12:51:13.371Z,35.50
2019-04-20T12:53:42.620Z,36.30
2019-04-20T12:56:12.741Z,37.20
2019-04-20T12:58:43.388Z,37.90
2019-04-20T13:01:12.201Z,37.90
2019-04-20T13:03:41.592Z,38.00
2019-04-20T13:06:10.233Z,37.90
2019-04-20T13:08:44.405Z,38.00
2019-04-20T13:11:13.009Z,37.60
2019-04-20T13:14:02.170Z,38.00
2019-04-20T13:16:32.432Z,38.30
2019-04-20T13:19:03.390Z,38.40
2019-04-20T13:21:32.410Z,38.40
2019-04-20T13:24:02.829Z,38.10
2019-04-20T13:26:32.833Z,37.30
2019-04-20T13:29:02.374Z,36.90
2019-04-20T13:31:31.711Z,37.20
2019-04-20T13:34:01.501Z,37.70
2019-04-20T13:36:30.585Z,38.50
2019-04-20T13:38:59.646Z,38.70
2019-04-20T13:41:29.799Z,39.30
2019-04-20T13:44:01.019Z,39.80
2019-04-20T13:46:29.278Z,40.00
2019-04-20T13:48:58.241Z,40.70
2019-04-20T13:51:26.681Z,40.60
2019-04-20T13:53:55.287Z,39.90
2019-04-20T13:56:25.855Z,38.70
2019-04-20T13:58:56.551Z,38.20
2019-04-20T14:01:30.651Z,37.70
2019-04-20T14:04:04.984Z,37.40
2019-04-20T14:06:35.309Z,36.70
2019-04-20T14:09:07.915Z,35.90
2019-04-20T14:11:37.293Z,35.40
2019-04-20T14:14:08.274Z,35.20
2019-04-20T14:16:36.889Z,35.10
2019-04-20T14:19:07.046Z,35.00
2019-04-20T14:21:36.373Z,35.70
2019-04-20T14:24:06.682Z,36.00
2019-04-20T14:26:38.799Z,35.90
2019-04-20T14:29:07.171Z,35.60
2019-04-20T14:31:37.411Z,35.40
2019-04-20T14:34:06.864Z,35.20
2019-04-20T14:36:35.392Z,35.30
2019-04-20T14:39:06.539Z,35.40
2019-04-20T14:41:36.071Z,35.50
2019-04-20T14:44:05.750Z,35.40
2019-04-20T14:46:35.851Z,35.90
2019-04-20T14:49:04.937Z,36.60
2019-04-20T14:51:35.322Z,37.40
2019-04-20T14:54:03.871Z,38.30
2019-04-20T14:56:33.520Z,38.30
2019-04-20T14:59:03.691Z,37.90
2019-04-20T15:01:34.700Z,37.00
2019-04-20T15:04:09.944Z,36.60
2019-04-20T15:06:37.908Z,35.90
2019-04-20T15:09:08.575Z,34.90
2019-04-20T15:11:39.693Z,34.40
2019-04-20T15:14:08.885Z,34.30
2019-04-20T15:16:38.495Z,34.40
2019-04-20T15:19:09.588Z,34.70
2019-04-20T15:21:53.538Z,34.70
2019-04-20T15:24:23.554Z,34.30
2019-04-20T15:26:52.713Z,34.40
2019-04-20T15:29:22.222Z,34.40
2019-04-20T15:31:52.292Z,34.20
2019-04-20T15:34:21.183Z,33.60
2019-04-20T15:36:50.296Z,33.50
2019-04-20T15:39:19.000Z,33.10
2019-04-20T15:41:47.928Z,32.60
2019-04-20T15:44:17.525Z,32.60
2019-04-20T15:46:46.514Z,32.70
2019-04-20T15:49:15.840Z,32.90
2019-04-20T15:51:46.031Z,32.90
2019-04-20T15:54:15.681Z,32.80
2019-04-20T15:56:52.454Z,32.70
2019-04-20T15:59:14.772Z,32.40
2019-04-20T16:01:45.123Z,32.20
2019-04-20T16:04:21.754Z,32.00
2019-04-20T16:06:47.342Z,31.70
2019-04-20T16:09:15.989Z,31.30
2019-04-20T16:11:44.755Z,30.90
2019-04-20T16:14:13.664Z,30.60
2019-04-20T16:16:42.520Z,30.60
2019-04-20T16:19:26.795Z,30.50
2019-04-20T16:21:41.754Z,30.50
2019-04-20T16:24:12.947Z,30.30
2019-04-20T16:26:47.314Z,30.00
2019-04-20T16:29:17.566Z,29.50
2019-04-20T16:31:48.169Z,29.00
2019-04-20T16:34:16.377Z,28.50
2019-04-20T16:36:44.769Z,27.90
2019-04-20T16:39:14.285Z,27.50
2019-04-20T16:41:44.447Z,27.00
2019-04-20T16:44:13.515Z,26.50
2019-04-20T16:46:42.454Z,26.20
2019-04-20T16:49:12.758Z,25.90
2019-04-20T16:51:42.934Z,25.70
2019-04-20T16:54:11.980Z,25.50
2019-04-20T16:56:42.477Z,25.30
2019-04-20T16:59:13.235Z,25.10
2019-04-20T17:01:42.361Z,24.90
2019-04-20T17:04:16.392Z,24.70
2019-04-20T17:06:42.727Z,24.50
2019-04-20T17:09:12.227Z,24.50
2019-04-20T17:11:41.554Z,24.60
2019-04-20T17:14:10.737Z,24.60
2019-04-20T17:16:39.676Z,24.50
2019-04-20T17:19:08.160Z,24.40
2019-04-20T17:21:37.339Z,24.30
2019-04-20T17:24:07.196Z,24.20
2019-04-20T17:26:52.933Z,24.00
2019-04-20T17:29:23.962Z,23.90
2019-04-20T17:31:55.713Z,23.70
2019-04-20T17:34:41.119Z,23.50
2019-04-20T17:36:54.637Z,23.30
2019-04-20T17:39:31.053Z,23.10
2019-04-20T17:42:11.740Z,22.90
2019-04-20T17:44:35.998Z,22.80
2019-04-20T17:47:03.457Z,22.70
2019-04-20T17:49:38.105Z,22.60
2019-04-20T17:52:21.898Z,22.40
2019-04-20T17:54:35.613Z,22.30
2019-04-20T17:57:09.033Z,22.20
2019-04-20T17:59:38.210Z,22.10
2019-04-20T18:07:49.814Z,21.60
2019-04-20T18:10:18.974Z,21.40
2019-04-20T18:12:44.002Z,21.30
2019-04-20T18:15:29.125Z,21.20
2019-04-20T18:18:07.286Z,21.00
2019-04-20T18:20:28.056Z,20.80
2019-04-20T18:22:57.329Z,20.70
2019-04-20T18:25:57.453Z,20.60
2019-04-20T18:28:12.904Z,20.50
2019-04-20T18:30:39.137Z,20.30
2019-04-20T18:33:00.944Z,20.20
2019-04-20T18:35:37.755Z,20.00
2019-04-20T18:38:04.673Z,19.90
2019-04-20T18:40:40.123Z,19.90
2019-04-20T18:43:07.500Z,19.70
2019-04-20T18:45:46.568Z,19.60
2019-04-20T18:48:18.504Z,19.50
2019-04-20T18:50:35.559Z,19.30
2019-04-20T18:53:01.161Z,19.30
2019-04-20T18:55:41.147Z,19.30
2019-04-20T18:57:59.754Z,19.30
2019-04-20T19:00:33.655Z,19.30
2019-04-20T19:03:09.586Z,19.40
2019-04-20T19:05:29.561Z,19.20
2019-04-20T19:08:04.272Z,19.10
2019-04-20T19:10:32.854Z,18.90
2019-04-20T19:13:22.385Z,18.80
2019-04-20T19:16:04.333Z,18.60
2019-04-20T19:18:49.343Z,18.40
2019-04-20T19:21:09.124Z,18.20
2019-04-20T19:23:48.625Z,18.10
2019-04-20T19:26:13.770Z,18.10
2019-04-20T19:28:45.117Z,18.10
2019-04-20T19:31:22.263Z,18.10
2019-04-20T19:34:00.835Z,18.10
2019-04-20T19:36:19.833Z,18.30
2019-04-20T19:38:52.294Z,18.30
2019-04-20T19:41:25.320Z,18.30
2019-04-20T19:43:49.969Z,18.30
2019-04-20T19:48:51.524Z,18.40
2019-04-20T19:51:29.174Z,18.40
2019-04-20T19:53:59.574Z,18.40
2019-04-20T19:56:28.159Z,18.50
2019-04-20T19:58:59.279Z,18.50
2019-04-20T20:01:11.459Z,18.60
2019-04-20T20:03:41.675Z,18.50
2019-04-20T20:06:18.700Z,18.40
2019-04-20T20:08:43.436Z,18.40
2019-04-20T20:11:21.851Z,18.40
2019-04-20T20:13:46.230Z,18.30
2019-04-20T20:16:20.379Z,18.40
2019-04-20T20:18:55.803Z,18.30
2019-04-20T20:21:22.582Z,18.30
2019-04-20T20:23:41.772Z,18.40
2019-04-20T20:26:20.699Z,18.30
2019-04-20T20:28:48.717Z,18.30
2019-04-20T20:31:22.322Z,18.10
2019-04-20T20:33:54.641Z,18.00
2019-04-20T20:36:15.627Z,18.00
2019-04-20T20:38:46.898Z,17.90
2019-04-20T20:41:20.596Z,17.90
2019-04-20T20:43:53.197Z,17.90
2019-04-20T20:46:23.935Z,17.80
2019-04-20T20:49:06.167Z,17.90
2019-04-20T20:51:39.213Z,17.80
2019-04-20T20:53:54.413Z,17.90
2019-04-20T20:56:22.534Z,18.00
2019-04-20T20:58:54.016Z,18.00
2019-04-20T21:01:21.416Z,18.00
2019-04-20T21:03:46.114Z,18.00
2019-04-20T21:06:14.681Z,17.90
2019-04-20T21:08:48.683Z,17.90
2019-04-20T21:11:20.445Z,17.80
2019-04-20T21:13:48.258Z,17.70
2019-04-20T21:16:20.091Z,17.60
2019-04-20T21:18:59.902Z,17.50
2019-04-20T21:21:28.741Z,17.40
2019-04-20T21:23:53.102Z,17.30
2019-04-20T21:26:23.679Z,17.20
2019-04-20T21:28:45.798Z,17.10
2019-04-20T21:31:21.670Z,17.10
2019-04-20T21:33:44.930Z,17.10
2019-04-20T21:36:21.173Z,17.10
2019-04-20T21:38:45.117Z,17.10
2019-04-20T21:41:16.909Z,17.00
2019-04-20T21:43:46.277Z,17.00
2019-04-20T21:46:14.651Z,17.10
2019-04-20T21:48:57.148Z,17.10
2019-04-20T21:51:27.518Z,17.00
2019-04-20T21:53:44.288Z,16.90
2019-04-20T21:56:12.965Z,16.70
2019-04-20T21:58:49.230Z,16.60
2019-04-20T22:01:22.138Z,16.50
2019-04-20T22:03:44.734Z,16.40
2019-04-20T22:06:14.056Z,16.40
2019-04-20T22:08:45.926Z,16.30
2019-04-20T22:11:13.630Z,16.40
2019-04-20T22:13:44.620Z,16.30
2019-04-20T22:16:14.363Z,16.30
2019-04-20T22:18:51.854Z,16.20
2019-04-20T22:21:21.353Z,16.10
2019-04-20T22:23:59.762Z,16.10
2019-04-20T22:26:26.341Z,16.10
2019-04-20T22:28:44.595Z,16.10
2019-04-20T22:31:14.135Z,16.00
2019-04-20T22:33:45.080Z,15.90
2019-04-20T22:36:14.542Z,15.80
2019-04-20T22:38:58.127Z,15.70
2019-04-20T22:41:26.516Z,15.70
2019-04-20T22:43:56.661Z,15.70
2019-04-20T22:46:31.816Z,15.60
2019-04-20T22:49:18.949Z,15.60
2019-04-20T22:51:40.256Z,15.50
2019-04-20T22:54:14.593Z,15.40
2019-04-20T22:56:39.720Z,15.30
2019-04-20T22:59:04.237Z,15.20
2019-04-20T23:01:35.660Z,15.20
2019-04-20T23:03:57.293Z,15.10
2019-04-20T23:06:33.394Z,15.00
2019-04-20T23:09:03.160Z,14.90
2019-04-20T23:11:30.018Z,14.80
2019-04-20T23:13:56.222Z,14.60
2019-04-20T23:16:27.948Z,14.50
2019-04-20T23:18:56.174Z,14.50
2019-04-20T23:21:25.877Z,14.40
2019-04-20T23:24:02.696Z,14.50
2019-04-20T23:26:31.297Z,14.50
2019-04-20T23:28:58.641Z,14.40
2019-04-20T23:31:27.351Z,14.30
2019-04-20T23:33:56.131Z,14.10
2019-04-20T23:36:33.913Z,14.10
2019-04-20T23:38:59.235Z,14.10
2019-04-20T23:41:25.995Z,14.10
2019-04-20T23:44:08.246Z,14.10
2019-04-20T23:46:45.789Z,14.10
2019-04-20T23:49:26.051Z,14.10
2019-04-20T23:52:09.838Z,14.00
2019-04-20T23:54:27.432Z,14.00
2019-04-20T23:56:53.473Z,14.00
2019-04-20T23:59:27.797Z,14.10
